Time;durP1;ratioP1;P1;durP2;ratioP2;P2;SDS_P1;SDS_P2;PMS_P1;PMS_P2;Temp;Humidity;BMP_temperature;BMP_pressure;BME280_temperature;BME280_humidity;BME280_pressure;Samples;Min_cycle;Max_cycle;Signal;HPM_P1;HPM_P2
2022/07/09 00:02:22;;;;;;;53.57;38.33;;;;;;;-145.18;100.00;46656.50;5011306;28;20084;-74
2022/07/09 00:04:47;;;;;;;50.10;37.77;;;;;;;-145.18;100.00;46660.41;5012035;28;20045;-75
2022/07/09 00:07:12;;;;;;;53.87;39.43;;;;;;;-145.18;100.00;46660.41;5011234;28;20038;-75
2022/07/09 00:09:38;;;;;;;53.30;38.33;;;;;;;-145.18;100.00;46654.53;5011870;28;20084;-75
2022/07/09 00:12:03;;;;;;;51.57;35.57;;;;;;;-145.18;100.00;46660.41;5011087;28;20041;-75
2022/07/09 00:14:29;;;;;;;50.00;32.60;;;;;;;-145.18;100.00;46660.41;5011880;28;20046;-75
2022/07/09 00:16:55;;;;;;;41.37;31.43;;;;;;;-145.18;100.00;46660.41;5010581;28;20057;-74
2022/07/09 00:19:20;;;;;;;39.23;26.37;;;;;;;-145.18;100.00;46660.41;5011370;28;20197;-74
2022/07/09 00:21:45;;;;;;;43.90;29.23;;;;;;;-145.18;100.00;46660.41;5011164;28;20084;-75
2022/07/09 00:24:11;;;;;;;31.37;20.57;;;;;;;-145.18;100.00;46660.41;5011438;28;20368;-75
2022/07/09 00:26:36;;;;;;;24.73;16.33;;;;;;;-145.18;100.00;46660.41;5010869;28;20128;-74
2022/07/09 00:29:02;;;;;;;24.57;17.23;;;;;;;-145.18;100.00;46660.41;5011219;28;20038;-75
2022/07/09 00:31:27;;;;;;;26.87;18.80;;;;;;;-145.18;100.00;46660.41;5010955;28;20033;-75
2022/07/09 00:33:53;;;;;;;22.20;16.10;;;;;;;-145.18;100.00;46660.41;5011037;28;20063;-75
2022/07/09 00:36:19;;;;;;;22.07;15.93;;;;;;;-145.18;100.00;46660.41;5010823;28;20395;-75
2022/07/09 00:38:44;;;;;;;21.00;16.03;;;;;;;-145.18;100.00;46660.41;5011258;28;20034;-75
2022/07/09 00:41:10;;;;;;;21.07;14.47;;;;;;;-145.18;100.00;46660.41;5010749;28;20082;-75
2022/07/09 00:43:35;;;;;;;18.33;14.17;;;;;;;-145.18;100.00;46658.44;5011262;28;20388;-75
2022/07/09 00:46:00;;;;;;;21.67;14.33;;;;;;;-145.18;100.00;46660.41;5010761;28;20030;-75
2022/07/09 00:48:26;;;;;;;19.53;13.73;;;;;;;-145.18;100.00;46660.41;5010880;28;20524;-75
2022/07/09 00:50:52;;;;;;;18.60;13.67;;;;;;;-145.18;100.00;46660.41;5010448;28;20069;-74
2022/07/09 00:53:22;;;;;;;16.33;12.13;;;;;;;-145.18;100.00;46658.44;5010324;28;20040;-74
2022/07/09 00:55:47;;;;;;;14.80;11.60;;;;;;;-145.18;100.00;46658.44;5010692;28;20038;-75
2022/07/09 00:58:16;;;;;;;14.57;11.10;;;;;;;-145.18;100.00;46660.41;4990546;28;20049;-74
2022/07/09 01:00:43;;;;;;;13.27;11.00;;;;;;;-145.18;100.00;46660.41;5010829;28;20034;-75
2022/07/09 01:03:08;;;;;;;15.60;12.27;;;;;;;-145.18;100.00;46660.41;5004301;28;20137;-75
2022/07/09 01:05:37;;;;;;;17.17;12.23;;;;;;;-145.18;100.00;46660.41;5010185;28;20121;-75
2022/07/09 01:08:04;;;;;;;16.80;12.57;;;;;;;-145.18;100.00;46660.41;5010285;28;20064;-75
2022/07/09 01:10:30;;;;;;;21.27;14.20;;;;;;;-145.18;100.00;46660.41;5010455;28;20034;-74
2022/07/09 01:12:55;;;;;;;17.20;12.60;;;;;;;-145.18;100.00;46660.41;5009847;28;20417;-76
2022/07/09 01:15:20;;;;;;;17.50;11.87;;;;;;;-145.18;100.00;46660.41;5010717;28;20030;-75
2022/07/09 01:17:46;;;;;;;12.30;10.07;;;;;;;-145.18;100.00;46660.41;5010195;28;20491;-75
2022/07/09 01:20:11;;;;;;;18.37;12.30;;;;;;;-145.18;100.00;46660.41;5010880;28;20053;-75
2022/07/09 01:22:37;;;;;;;20.83;14.93;;;;;;;-145.18;100.00;46660.41;5009623;28;20041;-75
2022/07/09 01:25:07;;;;;;;19.70;14.70;;;;;;;-145.18;100.00;46658.44;5010366;28;20034;-74
2022/07/09 01:27:33;;;;;;;19.00;14.50;;;;;;;-145.18;100.00;46656.50;5009579;28;20572;-75
2022/07/09 01:29:58;;;;;;;22.53;15.23;;;;;;;-145.18;100.00;46656.50;5010380;28;20022;-75
2022/07/09 01:32:23;;;;;;;22.93;15.77;;;;;;;-145.18;100.00;46654.53;5010111;28;20032;-75
2022/07/09 01:34:49;;;;;;;18.97;15.37;;;;;;;-145.18;100.00;46656.50;5009884;28;20093;-77
2022/07/09 01:37:15;;;;;;;21.37;14.77;;;;;;;-145.18;100.00;46650.63;5009701;28;20047;-76
2022/07/09 01:39:49;;;;;;;19.93;14.23;;;;;;;-145.18;100.00;46642.81;5010199;28;20676;-75
2022/07/09 01:42:16;;;;;;;20.80;14.37;;;;;;;-145.18;100.00;46640.88;5009774;28;20037;-76
2022/07/09 01:44:42;;;;;;;14.27;10.40;;;;;;;-145.18;100.00;46650.63;5010223;28;20496;-74
2022/07/09 01:47:07;;;;;;;10.63;8.33;;;;;;;-145.18;100.00;46642.81;5009475;28;20160;-75
2022/07/09 01:49:33;;;;;;;14.97;9.67;;;;;;;-145.18;100.00;46640.88;5010113;28;20372;-75
2022/07/09 01:51:58;;;;;;;14.50;10.13;;;;;;;-145.18;100.00;46652.59;5009665;28;20022;-75
2022/07/09 01:54:23;;;;;;;14.93;11.57;;;;;;;-145.18;100.00;46642.81;5010310;28;20042;-76
2022/07/09 01:56:49;;;;;;;16.47;11.17;;;;;;;-145.18;100.00;46640.88;5009169;28;20045;-75
2022/07/09 01:59:14;;;;;;;19.40;12.30;;;;;;;-145.18;100.00;46654.53;5010180;28;20491;-75
2022/07/09 02:01:39;;;;;;;13.37;11.00;;;;;;;-145.18;100.00;46650.63;5279457;23;20124;-77
2022/07/09 02:04:05;;;;;;;13.20;11.17;;;;;;;-145.18;100.00;46650.63;5008764;22;20392;-75
2022/07/09 02:06:30;;;;;;;14.17;11.23;;;;;;;-145.18;100.00;46640.88;4985900;28;20132;-75
2022/07/09 02:08:55;;;;;;;15.90;11.77;;;;;;;-145.18;100.00;46652.59;4985630;28;20395;-75
2022/07/09 02:11:21;;;;;;;13.63;11.43;;;;;;;-145.18;100.00;46642.81;4972586;28;20066;-75
2022/07/09 02:13:46;;;;;;;15.80;12.30;;;;;;;-145.18;100.00;46642.81;4990316;28;20033;-76
2022/07/09 02:16:12;;;;;;;15.33;13.23;;;;;;;-145.18;100.00;46652.59;4993494;28;20476;-75
2022/07/09 02:18:37;;;;;;;15.03;11.70;;;;;;;-145.18;100.00;46654.53;4993998;28;20483;-75
2022/07/09 02:21:04;;;;;;;20.43;13.90;;;;;;;-145.18;100.00;46654.53;4993912;28;20030;-75
2022/07/09 02:23:30;;;;;;;18.37;12.47;;;;;;;-145.18;100.00;46650.63;4993668;28;20042;-75
2022/07/09 02:25:55;;;;;;;22.17;13.10;;;;;;;-145.18;100.00;46654.53;4993658;28;20038;-75
2022/07/09 02:28:20;;;;;;;22.87;13.13;;;;;;;-145.18;100.00;46652.59;4993877;28;20109;-75
2022/07/09 02:30:46;;;;;;;16.87;13.40;;;;;;;-145.18;100.00;46652.59;4994030;28;20042;-75
2022/07/09 02:33:11;;;;;;;22.43;12.90;;;;;;;-145.18;100.00;46650.63;4993271;28;20030;-75
2022/07/09 02:35:37;;;;;;;17.80;13.30;;;;;;;-145.18;100.00;46642.81;4994124;28;20038;-75
2022/07/09 02:38:02;;;;;;;16.10;12.80;;;;;;;-145.18;100.00;46650.63;4975168;28;20089;-75
2022/07/09 02:40:27;;;;;;;17.60;12.73;;;;;;;-145.18;100.00;46640.88;4993507;28;20050;-77
2022/07/09 02:42:53;;;;;;;18.87;12.13;;;;;;;-145.18;100.00;46650.63;4992567;28;20066;-77
2022/07/09 02:45:18;;;;;;;16.13;11.43;;;;;;;-145.18;100.00;46650.63;4993733;28;20034;-77
2022/07/09 02:47:43;;;;;;;14.20;11.20;;;;;;;-145.18;100.00;46650.63;4993250;28;20507;-76
2022/07/09 02:50:09;;;;;;;18.33;12.57;;;;;;;-145.18;100.00;46654.53;4992972;28;20041;-77
2022/07/09 02:52:34;;;;;;;13.97;11.23;;;;;;;-145.18;100.00;46652.59;4993173;28;20034;-76
2022/07/09 02:55:00;;;;;;;12.83;10.87;;;;;;;-145.18;100.00;46652.59;4992878;28;20463;-77
2022/07/09 02:57:25;;;;;;;22.83;13.17;;;;;;;-145.18;100.00;46656.50;4992887;28;20042;-77
2022/07/09 02:59:50;;;;;;;28.87;12.63;;;;;;;-145.18;100.00;46650.63;4975684;28;20415;-77
2022/07/09 03:02:16;;;;;;;18.57;12.27;;;;;;;-145.18;100.00;46652.59;4999160;28;20042;-77
2022/07/09 03:04:41;;;;;;;13.87;10.20;;;;;;;-145.18;100.00;46642.81;5012927;28;20116;-75
2022/07/09 03:07:06;;;;;;;13.80;10.50;;;;;;;-145.18;100.00;46642.81;5011580;28;20275;-75
2022/07/09 03:09:32;;;;;;;13.27;9.93;;;;;;;-145.18;100.00;46650.63;5012393;28;20100;-75
2022/07/09 03:11:57;;;;;;;14.43;9.67;;;;;;;-145.18;100.00;46650.63;5012342;28;20043;-76
2022/07/09 03:14:23;;;;;;;10.87;9.03;;;;;;;-145.18;100.00;46642.81;4994923;28;20037;-75
2022/07/09 03:16:48;;;;;;;11.97;8.13;;;;;;;-145.18;100.00;46642.81;5012743;28;20076;-75
2022/07/09 03:19:14;;;;;;;21.17;5.50;;;;;;;-145.18;100.00;46652.59;5011782;28;20117;-75
2022/07/09 03:21:39;;;;;;;13.93;7.10;;;;;;;-145.18;100.00;46650.63;4994674;28;20026;-75
2022/07/09 03:24:05;;;;;;;10.60;8.90;;;;;;;-145.18;100.00;46642.81;5011982;28;20376;-74
2022/07/09 03:26:30;;;;;;;12.37;8.63;;;;;;;-145.18;100.00;46652.59;5011273;28;20029;-75
2022/07/09 03:28:56;;;;;;;9.40;8.23;;;;;;;-145.18;100.00;46642.81;5011959;28;20029;-74
2022/07/09 03:31:21;;;;;;;9.57;7.07;;;;;;;-145.18;100.00;46652.59;5012078;28;20590;-76
2022/07/09 03:33:46;;;;;;;9.37;7.80;;;;;;;-145.18;100.00;46640.88;5011779;28;20030;-75
2022/07/09 03:36:12;;;;;;;8.13;7.30;;;;;;;-145.18;100.00;46650.63;5011951;28;20482;-74
2022/07/09 03:38:37;;;;;;;10.43;7.90;;;;;;;-145.18;100.00;46650.63;5011835;28;20445;-75
2022/07/09 03:41:03;;;;;;;14.07;9.70;;;;;;;-145.18;100.00;46650.63;5011793;28;20040;-75
2022/07/09 03:43:28;;;;;;;15.23;11.83;;;;;;;-145.18;100.00;46638.91;4994091;28;20065;-75
2022/07/09 03:45:54;;;;;;;25.37;13.77;;;;;;;-145.18;100.00;46658.44;5011746;28;20042;-76
2022/07/09 03:48:20;;;;;;;26.73;14.87;;;;;;;-145.18;100.00;46650.63;5011340;28;20404;-75
2022/07/09 03:50:45;;;;;;;30.73;16.93;;;;;;;-145.18;100.00;46650.63;5012113;28;20026;-75
2022/07/09 03:53:10;;;;;;;21.57;14.70;;;;;;;-145.18;100.00;46650.63;5011183;28;20062;-75
2022/07/09 03:55:36;;;;;;;20.37;13.77;;;;;;;-145.18;100.00;46652.59;5011554;28;20034;-75
2022/07/09 03:58:01;;;;;;;17.50;12.87;;;;;;;-145.18;100.00;46650.63;5011261;28;20049;-75
2022/07/09 04:00:28;;;;;;;21.90;12.77;;;;;;;-145.18;100.00;46642.81;5011720;28;20117;-75
2022/07/09 04:02:53;;;;;;;18.83;13.77;;;;;;;-145.18;100.00;46650.63;5010675;28;20050;-75
2022/07/09 04:05:18;;;;;;;20.90;12.80;;;;;;;-145.18;100.00;46652.59;5011941;28;20088;-75
2022/07/09 04:07:44;;;;;;;31.17;16.53;;;;;;;-145.18;100.00;46652.59;5010999;28;20120;-76
2022/07/09 04:10:09;;;;;;;28.60;19.57;;;;;;;-145.18;100.00;46652.59;5011724;28;20529;-75
2022/07/09 04:12:35;;;;;;;31.10;19.17;;;;;;;-145.18;100.00;46650.63;4993508;28;20030;-76
2022/07/09 04:15:00;;;;;;;29.53;18.50;;;;;;;-145.18;100.00;46650.63;5011202;28;20112;-77
2022/07/09 04:17:26;;;;;;;35.23;21.53;;;;;;;-145.18;100.00;46654.53;5011200;28;20034;-75
2022/07/09 04:19:51;;;;;;;33.77;19.17;;;;;;;-145.18;100.00;46642.81;5011578;28;20062;-76
2022/07/09 04:22:16;;;;;;;33.67;21.17;;;;;;;-145.18;100.00;46650.63;5010931;28;20057;-76
2022/07/09 04:24:42;;;;;;;30.57;21.83;;;;;;;-145.18;100.00;46642.81;5011246;28;20115;-76
2022/07/09 04:27:07;;;;;;;31.67;20.83;;;;;;;-145.18;100.00;46652.59;5010850;28;20531;-76
2022/07/09 04:29:32;;;;;;;32.73;19.97;;;;;;;-145.18;100.00;46642.81;5011632;28;20038;-75
2022/07/09 04:31:58;;;;;;;30.17;20.43;;;;;;;-145.18;100.00;46640.88;5011662;28;20403;-76
2022/07/09 04:34:23;;;;;;;36.23;21.37;;;;;;;-145.18;100.00;46642.81;5011043;28;20038;-76
2022/07/09 04:36:49;;;;;;;36.47;21.43;;;;;;;-145.18;100.00;46654.53;5011044;28;20127;-76
2022/07/09 04:39:15;;;;;;;32.57;22.03;;;;;;;-145.18;100.00;46650.63;5010657;28;20449;-76
2022/07/09 04:41:40;;;;;;;39.27;24.13;;;;;;;-145.18;100.00;46650.63;5011188;28;20029;-75
2022/07/09 04:44:06;;;;;;;39.20;24.50;;;;;;;-145.18;100.00;46642.81;5010424;28;20053;-76
2022/07/09 04:46:32;;;;;;;44.67;22.67;;;;;;;-145.18;100.00;46638.91;4998589;28;20034;-77
2022/07/09 04:48:57;;;;;;;36.37;23.63;;;;;;;-145.18;100.00;46642.81;4992427;28;20114;-77
2022/07/09 04:51:23;;;;;;;40.37;24.90;;;;;;;-145.18;100.00;46642.81;4997078;28;20101;-77
2022/07/09 04:53:48;;;;;;;37.50;23.67;;;;;;;-145.18;100.00;46640.88;5010509;28;20076;-77
2022/07/09 04:56:14;;;;;;;31.70;24.10;;;;;;;-145.18;100.00;46642.81;4992766;28;20033;-77
2022/07/09 04:58:51;;;;;;;37.17;24.03;;;;;;;-145.18;100.00;46638.91;5010502;28;20025;-77
2022/07/09 05:01:20;;;;;;;32.73;24.10;;;;;;;-145.18;100.00;46642.81;5010977;28;20040;-77
2022/07/09 05:03:46;;;;;;;37.97;23.23;;;;;;;-145.18;100.00;46642.81;5001829;28;20046;-77
2022/07/09 05:06:19;;;;;;;34.50;23.50;;;;;;;-145.18;100.00;46638.91;4989745;28;20038;-76
2022/07/09 05:08:45;;;;;;;43.70;25.87;;;;;;;-145.18;100.00;46636.94;4990566;28;20038;-77
2022/07/09 05:11:10;;;;;;;37.93;25.60;;;;;;;-145.18;100.00;46635.00;4990668;28;20041;-77
2022/07/09 05:13:41;;;;;;;38.87;26.00;;;;;;;-145.18;100.00;46636.94;4985678;28;20039;-77
2022/07/09 05:16:08;;;;;;;36.20;24.20;;;;;;;-145.18;100.00;46636.94;4989437;28;20081;-77
2022/07/09 05:18:33;;;;;;;36.37;25.13;;;;;;;-145.18;100.00;46642.81;4990185;28;20026;-77
2022/07/09 05:20:58;;;;;;;34.60;23.73;;;;;;;-145.18;100.00;46642.81;4985670;28;20504;-77
2022/07/09 05:23:25;;;;;;;39.53;24.33;;;;;;;-145.18;100.00;46640.88;4988179;28;20073;-76
2022/07/09 05:25:50;;;;;;;45.03;26.03;;;;;;;-145.18;100.00;46640.88;4986841;28;20026;-76
2022/07/09 05:28:15;;;;;;;35.40;24.17;;;;;;;-145.18;100.00;46636.94;4989282;28;20064;-76
2022/07/09 05:30:41;;;;;;;43.07;25.53;;;;;;;-145.18;100.00;46636.94;4989599;28;20026;-77
2022/07/09 05:33:06;;;;;;;37.23;26.07;;;;;;;-145.18;100.00;46638.91;4988474;28;20045;-77
2022/07/09 05:35:32;;;;;;;37.37;24.83;;;;;;;-145.18;100.00;46636.94;4990696;28;20462;-78
2022/07/09 05:37:58;;;;;;;39.67;25.50;;;;;;;-145.18;100.00;46633.06;4989548;28;20402;-77
2022/07/09 05:40:23;;;;;;;39.67;26.50;;;;;;;-145.18;100.00;46636.94;4973039;28;20030;-77
2022/07/09 05:42:49;;;;;;;36.67;24.77;;;;;;;-145.18;100.00;46640.88;4989930;28;20525;-78
2022/07/09 05:45:14;;;;;;;36.33;24.90;;;;;;;-145.18;100.00;46638.91;4987117;28;20045;-78
2022/07/09 05:47:40;;;;;;;42.77;27.30;;;;;;;-145.18;100.00;46636.94;4984446;28;20035;-78
2022/07/09 05:50:06;;;;;;;38.30;26.87;;;;;;;-145.18;100.00;46636.94;4984097;28;20114;-77
2022/07/09 05:52:31;;;;;;;42.30;26.93;;;;;;;-145.18;100.00;46636.94;4987738;28;20426;-78
2022/07/09 05:54:56;;;;;;;43.90;28.37;;;;;;;-145.18;100.00;46638.91;4989873;28;20487;-77
2022/07/09 05:57:22;;;;;;;40.53;27.37;;;;;;;-145.18;100.00;46636.94;4989553;28;20469;-77
2022/07/09 05:59:48;;;;;;;43.43;27.70;;;;;;;-145.18;100.00;46638.91;4997147;28;20042;-77
2022/07/09 06:02:13;;;;;;;47.53;30.87;;;;;;;-145.18;100.00;46638.91;4991394;28;20356;-77
2022/07/09 06:04:39;;;;;;;40.83;29.37;;;;;;;-145.18;100.00;46636.94;5008345;28;20057;-77
2022/07/09 06:07:05;;;;;;;56.37;31.47;;;;;;;-145.18;100.00;46635.00;5006877;28;20076;-77
2022/07/09 06:09:30;;;;;;;49.57;30.17;;;;;;;-145.18;100.00;46635.00;5008459;28;20041;-77
2022/07/09 06:11:56;;;;;;;45.27;30.00;;;;;;;-145.18;100.00;46636.94;5009131;28;20084;-77
2022/07/09 06:14:21;;;;;;;47.20;30.67;;;;;;;-145.18;100.00;46592.03;5009387;28;20041;-77
2022/07/09 06:16:47;;;;;;;42.17;28.93;;;;;;;-145.18;100.00;46636.94;5009101;28;20496;-77
2022/07/09 06:19:13;;;;;;;44.23;29.00;;;;;;;-145.18;100.00;46635.00;5009016;28;20030;-77
2022/07/09 06:21:38;;;;;;;42.50;26.77;;;;;;;-145.18;100.00;46633.06;5008776;28;20517;-77
2022/07/09 06:24:05;;;;;;;38.53;24.63;;;;;;;-145.18;100.00;46636.94;5008670;28;20065;-78
2022/07/09 06:26:31;;;;;;;39.70;25.03;;;;;;;-145.18;100.00;46636.94;5009687;28;20080;-77
2022/07/09 06:28:56;;;;;;;34.50;21.43;;;;;;;-145.18;100.00;46597.88;5009235;28;20042;-77
2022/07/09 06:31:22;;;;;;;27.97;19.10;;;;;;;-145.18;100.00;46597.88;5008854;28;20045;-77
2022/07/09 06:33:48;;;;;;;29.40;21.03;;;;;;;-145.18;100.00;46595.94;5008916;28;20045;-77
2022/07/09 06:36:13;;;;;;;24.30;16.57;;;;;;;-145.18;100.00;46601.78;5008288;28;20148;-77
2022/07/09 06:39:44;;;;;;;22.70;16.40;;;;;;;-145.18;100.00;46601.78;5008882;28;20108;-77
2022/07/09 06:41:24;;;;;;;29.88;17.85;;;;;;;-145.18;100.00;46611.56;5008961;28;20032;-76
2022/07/09 06:43:49;;;;;;;29.17;17.47;;;;;;;-145.18;100.00;46611.56;5008455;28;20113;-77
2022/07/09 06:46:15;;;;;;;21.43;17.67;;;;;;;-145.18;100.00;46613.50;5006034;28;20041;-76
2022/07/09 06:48:40;;;;;;;28.17;18.43;;;;;;;-145.18;100.00;46613.50;5008912;28;20034;-77
2022/07/09 06:51:05;;;;;;;25.50;16.90;;;;;;;-145.18;100.00;46611.56;5009247;28;20049;-77
2022/07/09 06:53:31;;;;;;;21.97;16.70;;;;;;;-145.18;100.00;46617.41;5009063;28;20395;-77
2022/07/09 06:55:56;;;;;;;21.93;16.47;;;;;;;-145.18;100.00;46617.41;4991417;28;20620;-77
2022/07/09 06:58:21;;;;;;;22.53;15.40;;;;;;;-145.18;100.00;46619.38;5007915;28;20034;-77
2022/07/09 07:00:47;;;;;;;17.17;15.00;;;;;;;-145.18;100.00;46623.28;5008702;28;20038;-77
2022/07/09 07:03:12;;;;;;;20.13;16.53;;;;;;;-145.18;100.00;46623.28;5010934;28;20046;-77
2022/07/09 07:05:37;;;;;;;22.23;16.80;;;;;;;-145.18;100.00;46627.19;5010782;28;20045;-77
2022/07/09 07:08:03;;;;;;;24.70;15.17;;;;;;;-145.18;100.00;46625.22;5011160;28;20041;-77
2022/07/09 07:10:29;;;;;;;23.43;16.00;;;;;;;-145.18;100.00;46629.13;5011341;28;20068;-77
2022/07/09 07:12:55;;;;;;;18.10;16.20;;;;;;;-145.18;100.00;46631.09;5010415;28;20042;-77
2022/07/09 07:15:21;;;;;;;21.13;16.93;;;;;;;-145.18;100.00;46629.13;5020858;28;20053;-77
2022/07/09 07:17:48;;;;;;;24.77;16.70;;;;;;;-145.18;100.00;46631.09;5012392;28;20422;-77
2022/07/09 07:20:14;;;;;;;21.83;18.00;;;;;;;-145.18;100.00;46629.13;5012389;28;20034;-77
2022/07/09 07:22:39;;;;;;;23.03;16.47;;;;;;;-145.18;100.00;46629.13;5016270;28;20040;-76
2022/07/09 07:25:05;;;;;;;21.80;15.67;;;;;;;-145.18;100.00;46629.13;5008716;28;20030;-77
2022/07/09 07:27:30;;;;;;;21.60;17.13;;;;;;;-145.18;100.00;46631.09;5011483;28;20037;-77
2022/07/09 07:29:55;;;;;;;20.73;17.77;;;;;;;-145.18;100.00;46629.13;5010225;28;20026;-77
2022/07/09 07:32:21;;;;;;;25.47;17.80;;;;;;;-145.18;100.00;46629.13;4998418;28;20026;-78
2022/07/09 07:34:46;;;;;;;20.47;17.33;;;;;;;-145.18;100.00;46629.13;5011502;28;20084;-77
2022/07/09 07:37:11;;;;;;;25.13;17.57;;;;;;;-145.18;100.00;46631.09;5011505;28;20057;-77
2022/07/09 07:39:37;;;;;;;21.93;18.47;;;;;;;-145.18;100.00;46633.06;5015448;28;20125;-76
2022/07/09 07:42:02;;;;;;;21.97;18.13;;;;;;;-145.18;100.00;46631.09;5011992;28;20136;-76
2022/07/09 07:44:28;;;;;;;24.57;17.40;;;;;;;-145.18;100.00;46631.09;5013330;28;20520;-77
2022/07/09 07:46:54;;;;;;;19.53;17.03;;;;;;;-145.18;100.00;46635.00;5011801;28;20028;-76
2022/07/09 07:49:19;;;;;;;20.00;16.00;;;;;;;-145.18;100.00;46633.06;5011621;28;20034;-76
2022/07/09 07:51:45;;;;;;;19.23;16.77;;;;;;;-145.18;100.00;46636.94;5011892;28;20088;-77
2022/07/09 07:54:10;;;;;;;18.17;16.33;;;;;;;-145.18;100.00;46633.06;5011118;28;20034;-77
2022/07/09 07:56:38;;;;;;;24.07;17.03;;;;;;;-145.18;100.00;46640.88;5011464;28;20042;-76
2022/07/09 07:59:03;;;;;;;20.30;15.87;;;;;;;-145.18;100.00;46638.91;5011338;28;20483;-76
2022/07/09 08:01:29;;;;;;;20.73;16.00;;;;;;;-145.18;100.00;46636.94;5011441;28;20095;-76
2022/07/09 08:03:55;;;;;;;22.90;17.37;;;;;;;-145.18;100.00;46640.88;5011021;28;20057;-76
2022/07/09 08:06:22;;;;;;;23.80;16.37;;;;;;;-145.18;100.00;46640.88;4997263;28;20037;-77
2022/07/09 08:08:47;;;;;;;22.60;16.73;;;;;;;-145.18;100.00;46640.88;5011140;28;20505;-76
2022/07/09 08:11:13;;;;;;;22.37;16.47;;;;;;;-145.18;100.00;46642.81;5011151;28;20041;-77
2022/07/09 08:13:39;;;;;;;20.40;16.73;;;;;;;-145.18;100.00;46642.81;5010763;28;20034;-77
2022/07/09 08:16:05;;;;;;;24.03;16.00;;;;;;;-145.18;100.00;46638.91;5011440;28;20061;-76
2022/07/09 08:18:30;;;;;;;19.83;15.30;;;;;;;-145.18;100.00;46640.88;5011018;28;20471;-77
2022/07/09 08:20:56;;;;;;;17.43;12.40;;;;;;;-145.18;100.00;46636.94;5010833;28;20034;-77
2022/07/09 08:23:22;;;;;;;14.57;11.97;;;;;;;-145.18;100.00;46642.81;5011218;28;20041;-77
2022/07/09 08:25:47;;;;;;;18.03;12.93;;;;;;;-145.18;100.00;46636.94;5010663;28;20060;-77
2022/07/09 08:28:12;;;;;;;15.03;13.03;;;;;;;-145.18;100.00;46640.88;5010434;28;20038;-77
2022/07/09 08:30:38;;;;;;;19.57;13.37;;;;;;;-145.18;100.00;46633.06;5011047;28;20033;-76
2022/07/09 08:33:03;;;;;;;20.67;14.00;;;;;;;-145.18;100.00;46638.91;5010382;28;20403;-76
2022/07/09 08:35:29;;;;;;;19.83;12.17;;;;;;;-145.18;100.00;46638.91;5011118;28;20065;-76
2022/07/09 08:37:54;;;;;;;16.23;9.93;;;;;;;-145.18;100.00;46635.00;5010465;28;20132;-77
2022/07/09 08:40:21;;;;;;;18.70;9.80;;;;;;;-145.18;100.00;46636.94;5010863;28;20037;-77
2022/07/09 08:42:48;;;;;;;10.37;6.50;;;;;;;-145.18;100.00;46638.91;5010779;28;20038;-76
2022/07/09 08:45:17;;;;;;;9.27;5.80;;;;;;;-145.18;100.00;46638.91;5008792;28;20033;-77
2022/07/09 08:47:43;;;;;;;8.43;4.60;;;;;;;-145.18;100.00;46648.69;5010026;28;20088;-77
2022/07/09 08:50:09;;;;;;;5.77;3.50;;;;;;;-145.18;100.00;46650.63;5011429;28;20030;-76
2022/07/09 08:52:36;;;;;;;5.27;3.47;;;;;;;-145.18;100.00;46652.59;5009942;28;20030;-77
2022/07/09 08:55:02;;;;;;;10.40;3.40;;;;;;;-145.18;100.00;46656.50;5009669;28;20018;-76
2022/07/09 08:57:28;;;;;;;6.77;3.00;;;;;;;-145.18;100.00;46662.34;5010458;28;20533;-77
2022/07/09 08:59:53;;;;;;;6.27;3.27;;;;;;;-145.18;100.00;46652.59;5009888;28;20502;-77
2022/07/09 09:02:20;;;;;;;4.57;3.37;;;;;;;-145.18;100.00;46652.59;5009872;28;20168;-76
2022/07/09 09:04:45;;;;;;;4.67;2.77;;;;;;;-145.18;100.00;46656.50;5009660;28;20399;-77
2022/07/09 09:07:21;;;;;;;8.97;3.23;;;;;;;-145.18;100.00;46650.63;5009893;28;20034;-76
2022/07/09 09:09:47;;;;;;;6.43;2.80;;;;;;;-145.18;100.00;46652.59;5009765;28;20116;-77
2022/07/09 09:12:13;;;;;;;3.07;2.20;;;;;;;-145.18;100.00;46656.50;5010145;28;20033;-77
2022/07/09 09:14:39;;;;;;;3.57;2.23;;;;;;;-145.18;100.00;46654.53;5009685;28;20038;-77
2022/07/09 09:17:11;;;;;;;6.37;2.50;;;;;;;-145.18;100.00;46650.63;5009834;28;20033;-76
2022/07/09 09:19:39;;;;;;;5.00;2.30;;;;;;;-145.18;100.00;46652.59;4991676;28;20057;-77
2022/07/09 09:22:06;;;;;;;7.30;2.40;;;;;;;-145.18;100.00;46650.63;5005551;28;20328;-76
2022/07/09 09:24:31;;;;;;;5.83;2.47;;;;;;;-145.18;100.00;46656.50;4999300;28;20033;-77
2022/07/09 09:26:58;;;;;;;5.10;2.50;;;;;;;-145.18;100.00;46658.44;5009815;28;20034;-76
2022/07/09 09:29:23;;;;;;;4.20;2.00;;;;;;;-145.18;100.00;46658.44;5009754;28;20057;-77
2022/07/09 09:31:50;;;;;;;5.87;2.00;;;;;;;-145.18;100.00;46656.50;5009761;28;20064;-77
2022/07/09 09:34:17;;;;;;;3.30;1.50;;;;;;;-145.18;100.00;46660.41;5009184;28;20026;-77
2022/07/09 09:36:54;;;;;;;3.87;1.50;;;;;;;-145.18;100.00;46664.31;5009841;28;20117;-76
2022/07/09 09:39:25;;;;;;;4.27;1.27;;;;;;;-145.18;100.00;46662.34;5009896;28;20022;-76
2022/07/09 09:41:58;;;;;;;3.57;1.40;;;;;;;-145.18;100.00;46670.16;5009579;28;20097;-77
2022/07/09 09:44:37;;;;;;;2.27;1.20;;;;;;;-145.18;100.00;46668.22;5008997;28;20022;-76
2022/07/09 09:47:04;;;;;;;2.83;1.50;;;;;;;-145.18;100.00;46664.31;5009311;28;20122;-77
2022/07/09 09:49:29;;;;;;;2.67;1.50;;;;;;;-145.18;100.00;46670.16;5009040;28;20104;-77
2022/07/09 09:52:05;;;;;;;2.97;2.00;;;;;;;-145.18;100.00;46668.22;5009859;28;20025;-77
2022/07/09 09:54:34;;;;;;;;;;;;;;;-145.18;100.00;46664.31;5009727;28;20034;-77
2022/07/09 09:57:00;;;;;;;4.53;1.30;;;;;;;-145.18;100.00;46668.22;5009517;28;20349;-77
2022/07/09 09:59:26;;;;;;;2.23;1.27;;;;;;;-145.18;100.00;46662.34;5009337;28;20026;-77
2022/07/09 10:01:51;;;;;;;5.93;1.70;;;;;;;-145.18;100.00;46656.50;5009416;28;20475;-77
2022/07/09 10:04:18;;;;;;;4.40;1.40;;;;;;;-145.18;100.00;46660.41;5008604;28;20034;-77
2022/07/09 10:06:44;;;;;;;4.87;1.50;;;;;;;-145.18;100.00;46660.41;5008006;28;20077;-77
2022/07/09 10:09:12;;;;;;;5.77;1.63;;;;;;;-145.18;100.00;46644.78;5006630;28;20024;-76
2022/07/09 10:11:46;;;;;;;5.00;1.40;;;;;;;-145.18;100.00;46590.06;5009554;28;20079;-77
2022/07/09 10:14:29;;;;;;;2.33;1.13;;;;;;;-145.18;100.00;46582.25;5008906;28;20033;-77
2022/07/09 10:16:54;;;;;;;3.47;1.40;;;;;;;-145.18;100.00;46564.69;5009219;28;20041;-76
2022/07/09 10:19:24;;;;;;;3.60;1.73;;;;;;;-145.18;100.00;46539.28;5009002;28;20049;-76
2022/07/09 10:21:53;;;;;;;3.50;1.40;;;;;;;-145.18;100.00;46539.28;5009673;28;20161;-77
2022/07/09 10:24:31;;;;;;;6.07;2.13;;;;;;;-145.18;100.00;46535.38;5008889;28;20041;-77
2022/07/09 10:27:07;;;;;;;4.53;1.30;;;;;;;-145.18;100.00;46547.09;5009187;28;20041;-76
2022/07/09 10:29:34;;;;;;;9.47;1.60;;;;;;;-145.18;100.00;46541.25;5008775;28;20065;-77
2022/07/09 10:32:01;;;;;;;8.67;2.43;;;;;;;-145.18;100.00;46537.34;5009360;28;20030;-76
2022/07/09 10:34:48;;;;;;;3.23;1.20;;;;;;;-145.18;100.00;46539.28;5008325;28;20042;-77
2022/07/09 10:37:13;;;;;;;2.60;1.43;;;;;;;-145.18;100.00;46543.19;5015594;28;20033;-77
2022/07/09 10:39:39;;;;;;;4.93;1.30;;;;;;;-145.18;100.00;46543.19;5016641;28;20030;-77
2022/07/09 10:42:06;;;;;;;2.10;1.40;;;;;;;-145.18;100.00;46539.28;5010301;28;20052;-76
2022/07/09 10:44:40;;;;;;;3.40;1.23;;;;;;;-145.18;100.00;46549.06;5012396;28;20099;-77
2022/07/09 10:47:06;;;;;;;2.90;1.10;;;;;;;-145.18;100.00;46537.34;4997912;28;20045;-77
2022/07/09 10:49:35;;;;;;;2.23;1.30;;;;;;;-145.18;100.00;46545.16;4997254;28;20383;-77
2022/07/09 10:52:00;;;;;;;2.10;1.00;;;;;;;-145.18;100.00;46541.25;4999430;28;20097;-77
2022/07/09 10:54:26;;;;;;;4.13;1.20;;;;;;;-145.18;100.00;46543.19;5006807;28;20185;-78